sensor_id;sensor_type;location;lat;lon;timestamp;P1;durP1;ratioP1;P2;durP2;ratioP2
39276;SDS011;24981;48.086;-1.686;2022-07-22T00:01:58;10.07;;;4.03;;
39276;SDS011;24981;48.086;-1.686;2022-07-22T00:04:26;8.23;;;4.53;;
39276;SDS011;24981;48.086;-1.686;2022-07-22T00:06:53;9.20;;;4.35;;
39276;SDS011;24981;48.086;-1.686;2022-07-22T00:09:22;9.52;;;4.07;;
39276;SDS011;24981;48.086;-1.686;2022-07-22T00:11:49;9.80;;;4.30;;
39276;SDS011;24981;48.086;-1.686;2022-07-22T00:14:16;13.43;;;4.72;;
39276;SDS011;24981;48.086;-1.686;2022-07-22T00:16:44;8.50;;;4.10;;
39276;SDS011;24981;48.086;-1.686;2022-07-22T00:19:11;5.25;;;3.92;;
39276;SDS011;24981;48.086;-1.686;2022-07-22T00:21:39;11.38;;;4.80;;
39276;SDS011;24981;48.086;-1.686;2022-07-22T00:24:06;8.57;;;4.53;;
39276;SDS011;24981;48.086;-1.686;2022-07-22T00:26:35;12.02;;;5.18;;
39276;SDS011;24981;48.086;-1.686;2022-07-22T00:29:02;13.80;;;5.00;;
39276;SDS011;24981;48.086;-1.686;2022-07-22T00:31:30;5.78;;;4.07;;
39276;SDS011;24981;48.086;-1.686;2022-07-22T00:33:59;11.25;;;4.60;;
39276;SDS011;24981;48.086;-1.686;2022-07-22T00:36:27;10.48;;;4.30;;
39276;SDS011;24981;48.086;-1.686;2022-07-22T00:38:55;7.25;;;4.28;;
39276;SDS011;24981;48.086;-1.686;2022-07-22T00:41:22;8.80;;;4.35;;
39276;SDS011;24981;48.086;-1.686;2022-07-22T00:43:53;11.07;;;4.25;;
39276;SDS011;24981;48.086;-1.686;2022-07-22T00:46:24;8.77;;;4.13;;
39276;SDS011;24981;48.086;-1.686;2022-07-22T00:48:52;8.40;;;4.88;;
39276;SDS011;24981;48.086;-1.686;2022-07-22T00:51:19;8.27;;;4.13;;
39276;SDS011;24981;48.086;-1.686;2022-07-22T00:53:48;8.60;;;4.60;;
39276;SDS011;24981;48.086;-1.686;2022-07-22T00:56:16;7.95;;;4.10;;
39276;SDS011;24981;48.086;-1.686;2022-07-22T00:58:45;9.45;;;4.55;;
39276;SDS011;24981;48.086;-1.686;2022-07-22T01:01:16;11.98;;;4.07;;
39276;SDS011;24981;48.086;-1.686;2022-07-22T01:03:44;9.75;;;4.05;;
39276;SDS011;24981;48.086;-1.686;2022-07-22T01:06:12;10.63;;;4.57;;
39276;SDS011;24981;48.086;-1.686;2022-07-22T01:08:39;5.35;;;3.97;;
39276;SDS011;24981;48.086;-1.686;2022-07-22T01:11:08;9.93;;;4.97;;
39276;SDS011;24981;48.086;-1.686;2022-07-22T01:13:37;7.80;;;4.20;;
39276;SDS011;24981;48.086;-1.686;2022-07-22T01:16:05;6.75;;;3.95;;
39276;SDS011;24981;48.086;-1.686;2022-07-22T01:18:35;11.02;;;4.82;;
39276;SDS011;24981;48.086;-1.686;2022-07-22T01:21:04;7.13;;;4.63;;
39276;SDS011;24981;48.086;-1.686;2022-07-22T01:23:32;7.22;;;4.60;;
39276;SDS011;24981;48.086;-1.686;2022-07-22T01:25:59;5.90;;;4.30;;
39276;SDS011;24981;48.086;-1.686;2022-07-22T01:28:28;14.98;;;4.45;;
39276;SDS011;24981;48.086;-1.686;2022-07-22T01:30:55;8.27;;;4.70;;
39276;SDS011;24981;48.086;-1.686;2022-07-22T01:33:22;8.75;;;4.70;;
39276;SDS011;24981;48.086;-1.686;2022-07-22T01:35:51;9.57;;;5.68;;
39276;SDS011;24981;48.086;-1.686;2022-07-22T01:38:20;10.15;;;4.60;;
39276;SDS011;24981;48.086;-1.686;2022-07-22T01:40:47;10.02;;;4.45;;
39276;SDS011;24981;48.086;-1.686;2022-07-22T01:43:15;11.18;;;4.93;;
39276;SDS011;24981;48.086;-1.686;2022-07-22T01:45:46;9.65;;;5.28;;
39276;SDS011;24981;48.086;-1.686;2022-07-22T01:48:16;11.05;;;4.75;;
39276;SDS011;24981;48.086;-1.686;2022-07-22T01:50:44;14.23;;;4.68;;
39276;SDS011;24981;48.086;-1.686;2022-07-22T01:53:12;10.10;;;5.10;;
39276;SDS011;24981;48.086;-1.686;2022-07-22T01:55:41;10.85;;;5.55;;
39276;SDS011;24981;48.086;-1.686;2022-07-22T01:58:08;9.38;;;5.45;;
39276;SDS011;24981;48.086;-1.686;2022-07-22T02:00:36;8.82;;;5.72;;
39276;SDS011;24981;48.086;-1.686;2022-07-22T02:03:04;9.68;;;5.32;;
39276;SDS011;24981;48.086;-1.686;2022-07-22T02:05:31;11.82;;;5.82;;
39276;SDS011;24981;48.086;-1.686;2022-07-22T02:08:00;13.98;;;5.38;;
39276;SDS011;24981;48.086;-1.686;2022-07-22T02:10:28;9.25;;;5.38;;
39276;SDS011;24981;48.086;-1.686;2022-07-22T02:12:57;12.32;;;5.80;;
39276;SDS011;24981;48.086;-1.686;2022-07-22T02:15:25;10.60;;;5.55;;
39276;SDS011;24981;48.086;-1.686;2022-07-22T02:17:53;9.02;;;5.50;;
39276;SDS011;24981;48.086;-1.686;2022-07-22T02:20:21;11.50;;;5.78;;
39276;SDS011;24981;48.086;-1.686;2022-07-22T02:22:49;17.15;;;5.63;;
39276;SDS011;24981;48.086;-1.686;2022-07-22T02:25:17;11.00;;;5.63;;
39276;SDS011;24981;48.086;-1.686;2022-07-22T02:27:45;13.13;;;5.53;;
39276;SDS011;24981;48.086;-1.686;2022-07-22T02:30:13;11.48;;;5.40;;
39276;SDS011;24981;48.086;-1.686;2022-07-22T02:32:41;10.73;;;6.10;;
39276;SDS011;24981;48.086;-1.686;2022-07-22T02:35:08;9.70;;;5.85;;
39276;SDS011;24981;48.086;-1.686;2022-07-22T02:37:36;11.35;;;7.32;;
39276;SDS011;24981;48.086;-1.686;2022-07-22T02:40:05;9.02;;;5.45;;
39276;SDS011;24981;48.086;-1.686;2022-07-22T02:42:33;11.32;;;6.60;;
39276;SDS011;24981;48.086;-1.686;2022-07-22T02:45:00;9.95;;;6.22;;
39276;SDS011;24981;48.086;-1.686;2022-07-22T02:47:30;11.85;;;6.38;;
39276;SDS011;24981;48.086;-1.686;2022-07-22T02:49:57;15.38;;;7.13;;
39276;SDS011;24981;48.086;-1.686;2022-07-22T02:52:25;15.10;;;7.03;;
39276;SDS011;24981;48.086;-1.686;2022-07-22T02:54:52;9.45;;;6.40;;
39276;SDS011;24981;48.086;-1.686;2022-07-22T02:57:19;9.82;;;7.15;;
39276;SDS011;24981;48.086;-1.686;2022-07-22T02:59:47;13.95;;;7.07;;
39276;SDS011;24981;48.086;-1.686;2022-07-22T03:02:14;12.27;;;7.18;;
39276;SDS011;24981;48.086;-1.686;2022-07-22T03:04:43;13.63;;;8.13;;
39276;SDS011;24981;48.086;-1.686;2022-07-22T03:07:10;11.55;;;7.35;;
39276;SDS011;24981;48.086;-1.686;2022-07-22T03:09:37;17.08;;;8.63;;
39276;SDS011;24981;48.086;-1.686;2022-07-22T03:12:05;14.48;;;7.63;;
39276;SDS011;24981;48.086;-1.686;2022-07-22T03:14:33;15.38;;;7.50;;
39276;SDS011;24981;48.086;-1.686;2022-07-22T03:17:00;14.48;;;8.23;;
39276;SDS011;24981;48.086;-1.686;2022-07-22T03:19:28;13.88;;;7.88;;
39276;SDS011;24981;48.086;-1.686;2022-07-22T03:21:56;15.60;;;8.20;;
39276;SDS011;24981;48.086;-1.686;2022-07-22T03:24:23;15.68;;;8.65;;
39276;SDS011;24981;48.086;-1.686;2022-07-22T03:26:51;11.95;;;8.60;;
39276;SDS011;24981;48.086;-1.686;2022-07-22T03:29:18;15.32;;;8.93;;
39276;SDS011;24981;48.086;-1.686;2022-07-22T03:31:46;19.50;;;8.80;;
39276;SDS011;24981;48.086;-1.686;2022-07-22T03:34:13;18.60;;;8.95;;
39276;SDS011;24981;48.086;-1.686;2022-07-22T03:36:41;17.05;;;9.13;;
39276;SDS011;24981;48.086;-1.686;2022-07-22T03:39:09;16.83;;;9.18;;
39276;SDS011;24981;48.086;-1.686;2022-07-22T03:41:37;20.10;;;9.82;;
39276;SDS011;24981;48.086;-1.686;2022-07-22T03:44:04;17.45;;;9.18;;
39276;SDS011;24981;48.086;-1.686;2022-07-22T03:46:32;18.23;;;9.73;;
39276;SDS011;24981;48.086;-1.686;2022-07-22T03:48:59;16.25;;;8.88;;
39276;SDS011;24981;48.086;-1.686;2022-07-22T03:51:26;16.58;;;9.55;;
39276;SDS011;24981;48.086;-1.686;2022-07-22T03:53:53;16.88;;;9.75;;
39276;SDS011;24981;48.086;-1.686;2022-07-22T03:56:22;21.77;;;10.40;;
39276;SDS011;24981;48.086;-1.686;2022-07-22T03:58:50;18.35;;;9.80;;
39276;SDS011;24981;48.086;-1.686;2022-07-22T04:01:17;20.38;;;10.20;;
39276;SDS011;24981;48.086;-1.686;2022-07-22T04:03:44;14.48;;;9.68;;
39276;SDS011;24981;48.086;-1.686;2022-07-22T04:06:11;14.88;;;9.07;;
39276;SDS011;24981;48.086;-1.686;2022-07-22T04:08:39;19.02;;;10.25;;
39276;SDS011;24981;48.086;-1.686;2022-07-22T04:11:06;18.92;;;9.80;;
39276;SDS011;24981;48.086;-1.686;2022-07-22T04:13:35;19.55;;;9.90;;
39276;SDS011;24981;48.086;-1.686;2022-07-22T04:16:03;19.13;;;10.73;;
39276;SDS011;24981;48.086;-1.686;2022-07-22T04:18:31;18.92;;;10.77;;
39276;SDS011;24981;48.086;-1.686;2022-07-22T04:20:58;20.65;;;10.07;;
39276;SDS011;24981;48.086;-1.686;2022-07-22T04:23:26;18.25;;;10.65;;
39276;SDS011;24981;48.086;-1.686;2022-07-22T04:25:53;16.10;;;10.60;;
39276;SDS011;24981;48.086;-1.686;2022-07-22T04:28:21;21.58;;;10.73;;
39276;SDS011;24981;48.086;-1.686;2022-07-22T04:30:50;23.38;;;10.65;;
39276;SDS011;24981;48.086;-1.686;2022-07-22T04:33:17;16.95;;;10.85;;
39276;SDS011;24981;48.086;-1.686;2022-07-22T04:35:44;19.58;;;10.95;;
39276;SDS011;24981;48.086;-1.686;2022-07-22T04:38:12;19.35;;;10.80;;
39276;SDS011;24981;48.086;-1.686;2022-07-22T04:40:39;25.55;;;11.25;;
39276;SDS011;24981;48.086;-1.686;2022-07-22T04:43:07;18.63;;;10.57;;
39276;SDS011;24981;48.086;-1.686;2022-07-22T04:45:34;17.20;;;11.30;;
39276;SDS011;24981;48.086;-1.686;2022-07-22T04:48:03;17.77;;;10.60;;
39276;SDS011;24981;48.086;-1.686;2022-07-22T04:50:30;20.95;;;11.48;;
39276;SDS011;24981;48.086;-1.686;2022-07-22T04:52:57;19.05;;;12.13;;
39276;SDS011;24981;48.086;-1.686;2022-07-22T04:55:25;21.83;;;11.77;;
39276;SDS011;24981;48.086;-1.686;2022-07-22T04:57:52;16.70;;;10.52;;
39276;SDS011;24981;48.086;-1.686;2022-07-22T05:00:19;22.83;;;11.68;;
39276;SDS011;24981;48.086;-1.686;2022-07-22T05:02:47;19.90;;;11.43;;
39276;SDS011;24981;48.086;-1.686;2022-07-22T05:05:16;18.70;;;10.60;;
39276;SDS011;24981;48.086;-1.686;2022-07-22T05:07:43;19.08;;;10.43;;
39276;SDS011;24981;48.086;-1.686;2022-07-22T05:10:10;19.90;;;11.07;;
39276;SDS011;24981;48.086;-1.686;2022-07-22T05:12:37;22.45;;;11.85;;
39276;SDS011;24981;48.086;-1.686;2022-07-22T05:15:05;20.63;;;11.88;;
39276;SDS011;24981;48.086;-1.686;2022-07-22T05:17:33;17.02;;;10.27;;
39276;SDS011;24981;48.086;-1.686;2022-07-22T05:20:01;20.33;;;10.35;;
39276;SDS011;24981;48.086;-1.686;2022-07-22T05:22:30;21.05;;;10.88;;
39276;SDS011;24981;48.086;-1.686;2022-07-22T05:24:57;19.40;;;10.60;;
39276;SDS011;24981;48.086;-1.686;2022-07-22T05:27:25;17.00;;;11.18;;
39276;SDS011;24981;48.086;-1.686;2022-07-22T05:29:52;17.38;;;10.52;;
39276;SDS011;24981;48.086;-1.686;2022-07-22T05:32:20;19.55;;;10.77;;
39276;SDS011;24981;48.086;-1.686;2022-07-22T05:34:47;25.05;;;10.85;;
39276;SDS011;24981;48.086;-1.686;2022-07-22T05:37:14;17.52;;;10.52;;
39276;SDS011;24981;48.086;-1.686;2022-07-22T05:39:43;17.23;;;11.07;;
39276;SDS011;24981;48.086;-1.686;2022-07-22T05:42:11;19.90;;;10.77;;
39276;SDS011;24981;48.086;-1.686;2022-07-22T05:44:38;21.05;;;11.52;;
39276;SDS011;24981;48.086;-1.686;2022-07-22T05:47:05;19.83;;;10.90;;
39276;SDS011;24981;48.086;-1.686;2022-07-22T05:49:33;19.63;;;11.98;;
39276;SDS011;24981;48.086;-1.686;2022-07-22T05:52:00;17.80;;;11.65;;
39276;SDS011;24981;48.086;-1.686;2022-07-22T05:54:27;20.25;;;11.73;;
39276;SDS011;24981;48.086;-1.686;2022-07-22T05:56:56;17.77;;;11.20;;
39276;SDS011;24981;48.086;-1.686;2022-07-22T05:59:24;17.77;;;11.60;;
39276;SDS011;24981;48.086;-1.686;2022-07-22T06:01:51;16.92;;;11.23;;
39276;SDS011;24981;48.086;-1.686;2022-07-22T06:04:18;21.60;;;10.15;;
39276;SDS011;24981;48.086;-1.686;2022-07-22T06:06:47;15.82;;;10.45;;
39276;SDS011;24981;48.086;-1.686;2022-07-22T06:09:14;21.98;;;11.30;;
39276;SDS011;24981;48.086;-1.686;2022-07-22T06:11:41;17.33;;;10.52;;
39276;SDS011;24981;48.086;-1.686;2022-07-22T06:14:10;18.15;;;10.95;;
39276;SDS011;24981;48.086;-1.686;2022-07-22T06:16:37;17.70;;;10.13;;
39276;SDS011;24981;48.086;-1.686;2022-07-22T06:19:05;20.90;;;10.85;;
39276;SDS011;24981;48.086;-1.686;2022-07-22T06:21:32;20.95;;;10.52;;
39276;SDS011;24981;48.086;-1.686;2022-07-22T06:24:01;20.77;;;11.05;;
39276;SDS011;24981;48.086;-1.686;2022-07-22T06:26:29;19.80;;;9.82;;
39276;SDS011;24981;48.086;-1.686;2022-07-22T06:28:56;21.98;;;9.95;;
39276;SDS011;24981;48.086;-1.686;2022-07-22T06:31:25;19.65;;;10.43;;
39276;SDS011;24981;48.086;-1.686;2022-07-22T06:33:52;18.23;;;9.98;;
39276;SDS011;24981;48.086;-1.686;2022-07-22T06:36:19;16.92;;;9.15;;
39276;SDS011;24981;48.086;-1.686;2022-07-22T06:38:47;14.63;;;9.20;;
39276;SDS011;24981;48.086;-1.686;2022-07-22T06:41:14;17.85;;;10.80;;
39276;SDS011;24981;48.086;-1.686;2022-07-22T06:43:44;14.80;;;8.45;;
39276;SDS011;24981;48.086;-1.686;2022-07-22T06:46:12;15.20;;;10.60;;
39276;SDS011;24981;48.086;-1.686;2022-07-22T06:48:40;15.05;;;9.77;;
39276;SDS011;24981;48.086;-1.686;2022-07-22T06:51:08;17.67;;;9.80;;
39276;SDS011;24981;48.086;-1.686;2022-07-22T06:53:35;23.58;;;10.73;;
39276;SDS011;24981;48.086;-1.686;2022-07-22T06:56:03;20.80;;;9.38;;
39276;SDS011;24981;48.086;-1.686;2022-07-22T06:58:31;16.15;;;9.07;;
39276;SDS011;24981;48.086;-1.686;2022-07-22T07:00:58;16.95;;;9.00;;
39276;SDS011;24981;48.086;-1.686;2022-07-22T07:03:26;15.85;;;10.60;;
39276;SDS011;24981;48.086;-1.686;2022-07-22T07:05:54;16.73;;;9.35;;
39276;SDS011;24981;48.086;-1.686;2022-07-22T07:08:22;18.92;;;10.35;;
39276;SDS011;24981;48.086;-1.686;2022-07-22T07:10:49;18.20;;;10.10;;
39276;SDS011;24981;48.086;-1.686;2022-07-22T07:13:16;14.50;;;9.85;;
39276;SDS011;24981;48.086;-1.686;2022-07-22T07:15:43;14.93;;;9.38;;
39276;SDS011;24981;48.086;-1.686;2022-07-22T07:18:11;17.17;;;9.43;;
39276;SDS011;24981;48.086;-1.686;2022-07-22T07:20:38;14.07;;;9.30;;
39276;SDS011;24981;48.086;-1.686;2022-07-22T07:23:07;16.25;;;9.68;;
39276;SDS011;24981;48.086;-1.686;2022-07-22T07:25:34;15.30;;;8.75;;
39276;SDS011;24981;48.086;-1.686;2022-07-22T07:28:02;18.58;;;8.98;;
39276;SDS011;24981;48.086;-1.686;2022-07-22T07:30:30;15.70;;;9.00;;
39276;SDS011;24981;48.086;-1.686;2022-07-22T07:32:57;19.05;;;10.23;;
39276;SDS011;24981;48.086;-1.686;2022-07-22T07:35:26;22.08;;;10.20;;
39276;SDS011;24981;48.086;-1.686;2022-07-22T07:37:53;17.60;;;9.60;;
39276;SDS011;24981;48.086;-1.686;2022-07-22T07:40:22;14.98;;;9.30;;
39276;SDS011;24981;48.086;-1.686;2022-07-22T07:42:50;15.93;;;8.98;;
39276;SDS011;24981;48.086;-1.686;2022-07-22T07:45:17;16.08;;;8.55;;
39276;SDS011;24981;48.086;-1.686;2022-07-22T07:47:44;18.02;;;9.52;;
39276;SDS011;24981;48.086;-1.686;2022-07-22T07:50:12;16.17;;;9.90;;
39276;SDS011;24981;48.086;-1.686;2022-07-22T07:52:41;15.48;;;10.02;;
39276;SDS011;24981;48.086;-1.686;2022-07-22T07:55:10;20.42;;;9.65;;
39276;SDS011;24981;48.086;-1.686;2022-07-22T07:57:39;16.58;;;9.93;;
39276;SDS011;24981;48.086;-1.686;2022-07-22T08:00:08;13.50;;;9.23;;
39276;SDS011;24981;48.086;-1.686;2022-07-22T08:02:38;16.10;;;10.25;;
39276;SDS011;24981;48.086;-1.686;2022-07-22T08:05:06;21.02;;;10.05;;
39276;SDS011;24981;48.086;-1.686;2022-07-22T08:07:34;14.70;;;9.57;;
39276;SDS011;24981;48.086;-1.686;2022-07-22T08:10:03;15.00;;;9.70;;
39276;SDS011;24981;48.086;-1.686;2022-07-22T08:12:30;15.18;;;8.70;;
39276;SDS011;24981;48.086;-1.686;2022-07-22T08:14:59;16.58;;;9.23;;
39276;SDS011;24981;48.086;-1.686;2022-07-22T08:17:27;15.95;;;10.70;;
39276;SDS011;24981;48.086;-1.686;2022-07-22T08:19:54;20.27;;;10.25;;
39276;SDS011;24981;48.086;-1.686;2022-07-22T08:22:21;13.88;;;8.77;;
39276;SDS011;24981;48.086;-1.686;2022-07-22T08:24:48;15.52;;;9.57;;
39276;SDS011;24981;48.086;-1.686;2022-07-22T08:27:16;17.73;;;9.07;;
39276;SDS011;24981;48.086;-1.686;2022-07-22T08:29:43;18.70;;;10.40;;
39276;SDS011;24981;48.086;-1.686;2022-07-22T08:32:12;15.60;;;9.75;;
39276;SDS011;24981;48.086;-1.686;2022-07-22T08:34:40;20.08;;;11.00;;
39276;SDS011;24981;48.086;-1.686;2022-07-22T08:37:07;17.90;;;10.05;;
39276;SDS011;24981;48.086;-1.686;2022-07-22T08:39:35;14.80;;;10.00;;
39276;SDS011;24981;48.086;-1.686;2022-07-22T08:42:03;20.27;;;10.27;;
39276;SDS011;24981;48.086;-1.686;2022-07-22T08:44:31;14.82;;;10.00;;
39276;SDS011;24981;48.086;-1.686;2022-07-22T08:46:59;23.13;;;10.27;;
39276;SDS011;24981;48.086;-1.686;2022-07-22T08:49:29;14.13;;;9.35;;
39276;SDS011;24981;48.086;-1.686;2022-07-22T08:51:57;17.20;;;10.07;;
39276;SDS011;24981;48.086;-1.686;2022-07-22T08:54:24;24.58;;;10.73;;
39276;SDS011;24981;48.086;-1.686;2022-07-22T08:56:51;15.80;;;9.68;;
39276;SDS011;24981;48.086;-1.686;2022-07-22T08:59:19;12.98;;;9.18;;
39276;SDS011;24981;48.086;-1.686;2022-07-22T09:04:31;17.17;;;9.13;;
39276;SDS011;24981;48.086;-1.686;2022-07-22T09:06:58;16.67;;;11.07;;
39276;SDS011;24981;48.086;-1.686;2022-07-22T09:09:31;17.60;;;10.30;;
39276;SDS011;24981;48.086;-1.686;2022-07-22T09:14:46;18.80;;;11.00;;
39276;SDS011;24981;48.086;-1.686;2022-07-22T09:20:03;21.70;;;11.93;;
39276;SDS011;24981;48.086;-1.686;2022-07-22T09:22:43;19.20;;;12.27;;
39276;SDS011;24981;48.086;-1.686;2022-07-22T09:27:56;23.17;;;14.43;;
39276;SDS011;24981;48.086;-1.686;2022-07-22T09:30:39;30.45;;;13.98;;
39276;SDS011;24981;48.086;-1.686;2022-07-22T09:33:11;27.13;;;14.32;;
39276;SDS011;24981;48.086;-1.686;2022-07-22T09:35:40;27.88;;;15.13;;
39276;SDS011;24981;48.086;-1.686;2022-07-22T09:38:08;23.23;;;13.68;;
39276;SDS011;24981;48.086;-1.686;2022-07-22T09:40:37;26.85;;;14.70;;
39276;SDS011;24981;48.086;-1.686;2022-07-22T09:43:06;27.35;;;15.35;;
39276;SDS011;24981;48.086;-1.686;2022-07-22T09:45:43;25.30;;;16.55;;
39276;SDS011;24981;48.086;-1.686;2022-07-22T09:48:13;25.55;;;15.80;;
39276;SDS011;24981;48.086;-1.686;2022-07-22T09:50:42;24.85;;;15.82;;
39276;SDS011;24981;48.086;-1.686;2022-07-22T09:53:10;29.45;;;16.33;;
39276;SDS011;24981;48.086;-1.686;2022-07-22T09:55:38;27.98;;;16.55;;
39276;SDS011;24981;48.086;-1.686;2022-07-22T09:58:06;26.90;;;16.20;;
39276;SDS011;24981;48.086;-1.686;2022-07-22T10:00:34;22.65;;;15.73;;
39276;SDS011;24981;48.086;-1.686;2022-07-22T10:03:04;25.20;;;17.17;;
39276;SDS011;24981;48.086;-1.686;2022-07-22T10:05:34;31.27;;;16.23;;
39276;SDS011;24981;48.086;-1.686;2022-07-22T10:08:05;28.52;;;16.15;;
39276;SDS011;24981;48.086;-1.686;2022-07-22T10:10:34;31.38;;;16.85;;
39276;SDS011;24981;48.086;-1.686;2022-07-22T10:13:03;27.67;;;15.93;;
39276;SDS011;24981;48.086;-1.686;2022-07-22T10:15:32;24.30;;;16.17;;
39276;SDS011;24981;48.086;-1.686;2022-07-22T10:18:02;24.80;;;16.80;;
39276;SDS011;24981;48.086;-1.686;2022-07-22T10:20:32;27.35;;;15.27;;
39276;SDS011;24981;48.086;-1.686;2022-07-22T10:23:01;27.58;;;16.17;;
39276;SDS011;24981;48.086;-1.686;2022-07-22T10:25:31;29.05;;;15.93;;
39276;SDS011;24981;48.086;-1.686;2022-07-22T10:28:20;26.00;;;16.70;;
39276;SDS011;24981;48.086;-1.686;2022-07-22T10:30:49;23.30;;;15.60;;
39276;SDS011;24981;48.086;-1.686;2022-07-22T10:33:16;29.85;;;15.98;;
39276;SDS011;24981;48.086;-1.686;2022-07-22T10:38:30;31.20;;;17.38;;
39276;SDS011;24981;48.086;-1.686;2022-07-22T10:41:00;32.13;;;18.27;;
39276;SDS011;24981;48.086;-1.686;2022-07-22T10:43:29;23.92;;;16.20;;
39276;SDS011;24981;48.086;-1.686;2022-07-22T10:45:58;29.45;;;16.77;;
39276;SDS011;24981;48.086;-1.686;2022-07-22T10:51:13;27.10;;;17.65;;
39276;SDS011;24981;48.086;-1.686;2022-07-22T10:53:42;30.42;;;18.77;;
39276;SDS011;24981;48.086;-1.686;2022-07-22T10:56:15;29.15;;;18.70;;
39276;SDS011;24981;48.086;-1.686;2022-07-22T10:59:01;31.45;;;19.67;;
39276;SDS011;24981;48.086;-1.686;2022-07-22T11:01:36;35.55;;;20.25;;
39276;SDS011;24981;48.086;-1.686;2022-07-22T11:04:09;35.42;;;21.13;;
39276;SDS011;24981;48.086;-1.686;2022-07-22T11:06:40;35.83;;;22.05;;
39276;SDS011;24981;48.086;-1.686;2022-07-22T11:09:09;32.90;;;19.33;;
39276;SDS011;24981;48.086;-1.686;2022-07-22T11:11:42;35.05;;;20.38;;
39276;SDS011;24981;48.086;-1.686;2022-07-22T11:14:13;24.75;;;19.00;;
39276;SDS011;24981;48.086;-1.686;2022-07-22T11:16:42;34.22;;;19.70;;
39276;SDS011;24981;48.086;-1.686;2022-07-22T11:19:10;32.30;;;20.13;;
39276;SDS011;24981;48.086;-1.686;2022-07-22T11:21:37;27.80;;;19.40;;
39276;SDS011;24981;48.086;-1.686;2022-07-22T11:24:07;37.22;;;21.17;;
39276;SDS011;24981;48.086;-1.686;2022-07-22T11:26:39;33.67;;;22.23;;
39276;SDS011;24981;48.086;-1.686;2022-07-22T11:29:09;30.98;;;20.55;;
39276;SDS011;24981;48.086;-1.686;2022-07-22T11:31:41;36.30;;;20.05;;
39276;SDS011;24981;48.086;-1.686;2022-07-22T11:34:10;36.20;;;20.05;;
39276;SDS011;24981;48.086;-1.686;2022-07-22T11:36:39;32.58;;;20.17;;
39276;SDS011;24981;48.086;-1.686;2022-07-22T11:39:09;36.45;;;20.90;;
39276;SDS011;24981;48.086;-1.686;2022-07-22T11:41:38;37.72;;;21.40;;
39276;SDS011;24981;48.086;-1.686;2022-07-22T11:44:07;40.65;;;22.45;;
39276;SDS011;24981;48.086;-1.686;2022-07-22T11:46:36;31.02;;;21.20;;
39276;SDS011;24981;48.086;-1.686;2022-07-22T11:49:05;36.25;;;22.05;;
39276;SDS011;24981;48.086;-1.686;2022-07-22T11:51:35;40.08;;;21.98;;
39276;SDS011;24981;48.086;-1.686;2022-07-22T11:54:04;33.53;;;21.63;;
39276;SDS011;24981;48.086;-1.686;2022-07-22T11:56:32;38.15;;;20.83;;
39276;SDS011;24981;48.086;-1.686;2022-07-22T11:59:00;44.88;;;22.33;;
39276;SDS011;24981;48.086;-1.686;2022-07-22T12:01:32;40.60;;;20.27;;
39276;SDS011;24981;48.086;-1.686;2022-07-22T12:04:03;37.47;;;19.42;;
39276;SDS011;24981;48.086;-1.686;2022-07-22T12:06:32;29.98;;;18.77;;
39276;SDS011;24981;48.086;-1.686;2022-07-22T12:09:04;34.87;;;18.77;;
39276;SDS011;24981;48.086;-1.686;2022-07-22T12:11:33;31.17;;;18.05;;
39276;SDS011;24981;48.086;-1.686;2022-07-22T12:14:05;38.28;;;17.90;;
39276;SDS011;24981;48.086;-1.686;2022-07-22T12:16:35;33.78;;;18.98;;
39276;SDS011;24981;48.086;-1.686;2022-07-22T12:19:04;35.83;;;17.40;;
39276;SDS011;24981;48.086;-1.686;2022-07-22T12:21:33;33.63;;;17.70;;
39276;SDS011;24981;48.086;-1.686;2022-07-22T12:24:03;35.65;;;16.52;;
39276;SDS011;24981;48.086;-1.686;2022-07-22T12:29:15;33.20;;;18.30;;
39276;SDS011;24981;48.086;-1.686;2022-07-22T12:31:47;28.35;;;16.08;;
39276;SDS011;24981;48.086;-1.686;2022-07-22T12:34:15;30.85;;;16.90;;
39276;SDS011;24981;48.086;-1.686;2022-07-22T12:36:44;30.10;;;17.13;;
39276;SDS011;24981;48.086;-1.686;2022-07-22T12:39:13;24.35;;;17.05;;
39276;SDS011;24981;48.086;-1.686;2022-07-22T12:41:44;28.35;;;15.88;;
39276;SDS011;24981;48.086;-1.686;2022-07-22T12:44:16;25.80;;;15.23;;
39276;SDS011;24981;48.086;-1.686;2022-07-22T12:46:47;26.95;;;15.43;;
39276;SDS011;24981;48.086;-1.686;2022-07-22T12:49:17;29.95;;;16.08;;
39276;SDS011;24981;48.086;-1.686;2022-07-22T12:54:33;24.60;;;16.38;;
39276;SDS011;24981;48.086;-1.686;2022-07-22T12:57:03;25.52;;;15.07;;
39276;SDS011;24981;48.086;-1.686;2022-07-22T12:59:31;24.25;;;15.73;;
39276;SDS011;24981;48.086;-1.686;2022-07-22T13:02:00;31.25;;;15.18;;
39276;SDS011;24981;48.086;-1.686;2022-07-22T13:04:27;23.45;;;14.13;;
39276;SDS011;24981;48.086;-1.686;2022-07-22T13:06:55;23.85;;;13.77;;
39276;SDS011;24981;48.086;-1.686;2022-07-22T13:09:23;20.17;;;13.60;;
39276;SDS011;24981;48.086;-1.686;2022-07-22T13:11:51;23.98;;;15.88;;
39276;SDS011;24981;48.086;-1.686;2022-07-22T13:14:18;25.00;;;14.20;;
39276;SDS011;24981;48.086;-1.686;2022-07-22T13:16:46;26.95;;;14.68;;
39276;SDS011;24981;48.086;-1.686;2022-07-22T13:19:14;26.60;;;13.75;;
39276;SDS011;24981;48.086;-1.686;2022-07-22T13:21:42;25.35;;;14.15;;
39276;SDS011;24981;48.086;-1.686;2022-07-22T13:24:10;23.33;;;14.40;;
39276;SDS011;24981;48.086;-1.686;2022-07-22T13:26:38;24.02;;;12.90;;
39276;SDS011;24981;48.086;-1.686;2022-07-22T13:29:05;19.10;;;13.32;;
39276;SDS011;24981;48.086;-1.686;2022-07-22T13:31:33;22.95;;;13.52;;
39276;SDS011;24981;48.086;-1.686;2022-07-22T13:34:00;24.05;;;13.20;;
39276;SDS011;24981;48.086;-1.686;2022-07-22T13:36:28;18.02;;;11.38;;
39276;SDS011;24981;48.086;-1.686;2022-07-22T13:38:59;23.25;;;13.30;;
39276;SDS011;24981;48.086;-1.686;2022-07-22T13:41:27;21.75;;;12.35;;
39276;SDS011;24981;48.086;-1.686;2022-07-22T13:43:54;20.88;;;11.85;;
39276;SDS011;24981;48.086;-1.686;2022-07-22T13:46:22;14.13;;;10.05;;
39276;SDS011;24981;48.086;-1.686;2022-07-22T13:48:49;16.88;;;8.68;;
39276;SDS011;24981;48.086;-1.686;2022-07-22T13:51:16;20.88;;;10.35;;
39276;SDS011;24981;48.086;-1.686;2022-07-22T13:53:45;15.93;;;9.18;;
39276;SDS011;24981;48.086;-1.686;2022-07-22T13:56:12;15.57;;;8.95;;
39276;SDS011;24981;48.086;-1.686;2022-07-22T13:58:40;12.85;;;7.82;;
39276;SDS011;24981;48.086;-1.686;2022-07-22T14:01:08;11.93;;;8.55;;
39276;SDS011;24981;48.086;-1.686;2022-07-22T14:03:36;21.80;;;8.68;;
39276;SDS011;24981;48.086;-1.686;2022-07-22T14:06:04;17.75;;;8.45;;
39276;SDS011;24981;48.086;-1.686;2022-07-22T14:08:34;13.57;;;7.95;;
39276;SDS011;24981;48.086;-1.686;2022-07-22T14:11:04;13.52;;;8.10;;
39276;SDS011;24981;48.086;-1.686;2022-07-22T14:13:31;12.82;;;7.03;;
39276;SDS011;24981;48.086;-1.686;2022-07-22T14:15:59;12.15;;;7.38;;
39276;SDS011;24981;48.086;-1.686;2022-07-22T14:18:47;11.63;;;6.95;;
39276;SDS011;24981;48.086;-1.686;2022-07-22T14:21:14;10.63;;;6.60;;
39276;SDS011;24981;48.086;-1.686;2022-07-22T14:23:41;11.13;;;6.57;;
39276;SDS011;24981;48.086;-1.686;2022-07-22T14:26:10;12.77;;;6.80;;
39276;SDS011;24981;48.086;-1.686;2022-07-22T14:28:37;13.13;;;6.07;;
39276;SDS011;24981;48.086;-1.686;2022-07-22T14:31:05;11.98;;;6.40;;
39276;SDS011;24981;48.086;-1.686;2022-07-22T14:33:32;11.68;;;6.38;;
39276;SDS011;24981;48.086;-1.686;2022-07-22T14:35:59;12.35;;;5.95;;
39276;SDS011;24981;48.086;-1.686;2022-07-22T14:38:27;10.35;;;5.97;;
39276;SDS011;24981;48.086;-1.686;2022-07-22T14:40:54;12.75;;;6.07;;
39276;SDS011;24981;48.086;-1.686;2022-07-22T14:43:23;11.32;;;5.82;;
39276;SDS011;24981;48.086;-1.686;2022-07-22T14:45:51;10.45;;;5.30;;